Time;durP1;ratioP1;P1;durP2;ratioP2;P2;SDS_P1;SDS_P2;PMS_P1;PMS_P2;Temp;Humidity;BMP_temperature;BMP_pressure;BME280_temperature;BME280_humidity;BME280_pressure;Samples;Min_cycle;Max_cycle;Signal;HPM_P1;HPM_P2
2022/06/15 00:01:31;;;;;;;7.10;4.20;;;13.30;99.90;;;;;;5093836;28;20226;-69
2022/06/15 00:03:57;;;;;;;6.27;3.53;;;13.40;99.90;;;;;;5095556;28;20557;-69
2022/06/15 00:06:24;;;;;;;3.57;3.27;;;13.30;99.90;;;;;;5095116;28;20173;-68
2022/06/15 00:08:53;;;;;;;3.97;3.60;;;13.30;99.90;;;;;;5095313;28;20558;-69
2022/06/15 00:11:25;;;;;;;4.50;3.20;;;13.30;99.90;;;;;;5095375;28;20461;-69
2022/06/15 00:13:51;;;;;;;4.83;3.37;;;13.30;99.90;;;;;;5097469;28;20691;-69
2022/06/15 00:16:18;;;;;;;3.80;2.87;;;13.20;99.90;;;;;;5103018;28;20400;-69
2022/06/15 00:18:45;;;;;;;4.10;3.00;;;13.20;99.90;;;;;;5095489;28;20438;-69
2022/06/15 00:21:12;;;;;;;2.83;2.60;;;13.20;99.90;;;;;;5095153;28;20404;-69
2022/06/15 00:23:38;;;;;;;4.90;3.90;;;13.20;99.90;;;;;;5092855;28;20410;-69
2022/06/15 00:26:05;;;;;;;4.03;3.10;;;13.20;99.90;;;;;;5074486;28;20412;-69
2022/06/15 00:28:31;;;;;;;2.63;2.40;;;13.30;99.90;;;;;;5074583;28;20527;-69
2022/06/15 00:30:57;;;;;;;3.47;3.10;;;13.20;99.90;;;;;;5075267;28;20487;-69
2022/06/15 00:33:24;;;;;;;4.20;3.03;;;13.30;99.90;;;;;;5075231;28;20458;-69
2022/06/15 00:35:58;;;;;;;4.23;3.10;;;13.40;99.90;;;;;;5074713;28;20443;-69
2022/06/15 00:38:49;;;;;;;4.87;3.30;;;13.40;99.90;;;;;;5074686;28;20431;-69
2022/06/15 00:41:36;;;;;;;5.73;3.40;;;13.40;99.90;;;;;;5074745;28;20482;-69
2022/06/15 00:44:22;;;;;;;7.63;3.50;;;13.40;99.90;;;;;;5074515;28;20415;-69
2022/06/15 00:46:50;;;;;;;5.40;4.00;;;13.30;99.90;;;;;;5074198;28;20503;-71
2022/06/15 00:49:26;;;;;;;4.97;3.83;;;13.30;99.90;;;;;;5074288;28;20453;-69
2022/06/15 00:51:56;;;;;;;4.93;3.17;;;13.30;99.90;;;;;;5074502;28;20475;-69
2022/06/15 00:54:22;;;;;;;4.10;3.40;;;13.30;99.90;;;;;;5074154;28;20936;-69
2022/06/15 00:56:49;;;;;;;5.00;3.67;;;13.20;99.90;;;;;;5074010;28;20786;-68
2022/06/15 00:59:18;;;;;;;7.43;2.87;;;13.20;99.90;;;;;;5074193;28;20461;-69
2022/06/15 01:01:44;;;;;;;7.43;2.87;;;13.10;99.90;;;;;;5073944;28;20518;-69
2022/06/15 01:04:11;;;;;;;6.83;3.80;;;13.10;99.90;;;;;;5074016;28;20409;-69
2022/06/15 01:06:42;;;;;;;5.43;3.57;;;13.10;99.90;;;;;;5073737;28;20463;-69
2022/06/15 01:09:07;;;;;;;3.47;3.17;;;13.00;99.90;;;;;;5074047;28;20404;-69
2022/06/15 01:11:36;;;;;;;4.10;3.27;;;13.00;99.90;;;;;;5073508;28;20494;-69
2022/06/15 01:14:42;;;;;;;5.50;3.60;;;12.90;99.90;;;;;;5073383;28;20201;-69
2022/06/15 01:17:30;;;;;;;3.47;2.90;;;12.90;99.90;;;;;;5073858;28;20429;-68
2022/06/15 01:20:17;;;;;;;7.43;3.37;;;12.90;99.90;;;;;;5073765;28;20397;-69
2022/06/15 01:22:48;;;;;;;3.60;3.20;;;12.90;99.90;;;;;;5073757;28;20726;-69
2022/06/15 01:25:45;;;;;;;3.47;2.90;;;12.90;99.90;;;;;;5055813;28;20404;-69
2022/06/15 01:28:31;;;;;;;5.10;2.87;;;12.90;99.90;;;;;;5053260;28;20440;-69
2022/06/15 01:31:09;;;;;;;2.63;2.40;;;13.00;99.90;;;;;;5073826;28;20950;-68
2022/06/15 01:33:47;;;;;;;4.10;3.20;;;13.00;99.90;;;;;;5073747;28;20458;-69
2022/06/15 01:36:39;;;;;;;6.10;2.50;;;13.00;99.90;;;;;;5073184;28;20439;-68
2022/06/15 01:39:10;;;;;;;2.33;2.13;;;13.00;99.90;;;;;;5073393;28;20898;-69
2022/06/15 01:42:02;;;;;;;2.33;2.13;;;12.90;99.90;;;;;;5073572;28;20452;-68
2022/06/15 01:44:35;;;;;;;4.03;2.50;;;12.90;99.90;;;;;;5074714;28;20401;-68
2022/06/15 01:47:04;;;;;;;8.20;2.10;;;12.80;99.90;;;;;;5075439;28;20425;-68
2022/06/15 01:49:40;;;;;;;3.63;2.90;;;12.80;99.90;;;;;;5073757;28;20409;-68
2022/06/15 01:52:09;;;;;;;3.30;2.57;;;12.80;99.90;;;;;;5073197;28;20513;-68
2022/06/15 01:54:43;;;;;;;2.57;2.20;;;12.80;99.90;;;;;;5073312;28;20878;-68
2022/06/15 01:57:11;;;;;;;2.30;2.10;;;12.80;99.90;;;;;;5055246;28;20432;-70
2022/06/15 01:59:44;;;;;;;3.87;2.20;;;12.90;99.90;;;;;;5073508;28;20431;-69
2022/06/15 02:02:28;;;;;;;2.57;2.37;;;12.90;99.90;;;;;;5076505;28;20781;-69
2022/06/15 02:05:33;;;;;;;3.00;1.97;;;12.90;99.90;;;;;;5074972;28;20759;-69
2022/06/15 02:08:26;;;;;;;4.20;2.20;;;12.90;99.90;;;;;;5054928;28;20432;-69
2022/06/15 02:10:57;;;;;;;2.63;2.43;;;12.80;99.90;;;;;;5072895;28;20404;-69
2022/06/15 02:13:30;;;;;;;6.73;2.40;;;12.70;99.90;;;;;;5072481;28;20452;-69
2022/06/15 02:16:11;;;;;;;2.57;2.37;;;12.70;99.90;;;;;;5072275;28;20435;-69
2022/06/15 02:18:39;;;;;;;2.70;2.50;;;12.70;99.90;;;;;;5072582;28;20482;-68
2022/06/15 02:21:09;;;;;;;2.07;1.80;;;12.70;99.90;;;;;;5072498;28;20917;-68
2022/06/15 02:23:38;;;;;;;2.23;2.03;;;12.70;99.90;;;;;;5072433;28;20401;-68
2022/06/15 02:26:04;;;;;;;3.20;2.27;;;12.60;99.90;;;;;;5072533;28;20412;-69
2022/06/15 02:28:34;;;;;;;2.80;2.43;;;12.60;99.90;;;;;;5072210;28;20431;-69
2022/06/15 02:31:00;;;;;;;2.53;2.30;;;12.60;99.90;;;;;;5072711;28;20396;-69
2022/06/15 02:33:27;;;;;;;2.67;1.83;;;12.50;99.90;;;;;;5072310;28;20513;-69
2022/06/15 02:35:54;;;;;;;3.10;2.30;;;12.50;99.90;;;;;;5072282;28;20527;-69
2022/06/15 02:38:19;;;;;;;4.63;1.93;;;12.50;99.90;;;;;;5072264;28;20558;-69
2022/06/15 02:40:45;;;;;;;2.20;1.90;;;12.50;99.90;;;;;;5072421;28;20418;-69
2022/06/15 02:43:12;;;;;;;2.73;1.93;;;12.40;99.90;;;;;;5054178;28;20177;-69
2022/06/15 02:45:39;;;;;;;3.80;2.37;;;12.40;99.90;;;;;;5072082;28;20170;-69
2022/06/15 02:48:07;;;;;;;3.67;3.37;;;12.40;99.90;;;;;;5071903;28;20416;-70
2022/06/15 02:50:41;;;;;;;3.63;2.40;;;12.40;99.90;;;;;;5071977;28;20484;-68
2022/06/15 02:53:07;;;;;;;4.93;2.40;;;12.30;99.90;;;;;;5071789;28;20535;-68
2022/06/15 02:55:34;;;;;;;5.00;3.13;;;12.30;99.90;;;;;;5071393;28;20906;-69
2022/06/15 02:58:09;;;;;;;4.37;3.33;;;12.30;99.90;;;;;;5071926;28;20384;-69
2022/06/15 03:00:36;;;;;;;5.93;3.83;;;12.30;99.90;;;;;;5072101;28;20407;-69
2022/06/15 03:03:02;;;;;;;3.20;2.90;;;12.30;99.90;;;;;;5071574;28;20413;-69
2022/06/15 03:05:27;;;;;;;5.13;3.17;;;12.30;99.90;;;;;;5071500;28;20401;-69
2022/06/15 03:07:53;;;;;;;2.90;2.53;;;12.20;99.90;;;;;;5071579;28;20716;-68
2022/06/15 03:10:18;;;;;;;2.77;2.50;;;12.20;99.90;;;;;;5071593;28;20251;-69
2022/06/15 03:12:44;;;;;;;3.07;2.80;;;12.30;99.90;;;;;;5071413;28;20230;-69
2022/06/15 03:15:10;;;;;;;4.40;2.60;;;12.30;99.90;;;;;;5071359;28;20640;-69
2022/06/15 03:17:36;;;;;;;2.73;2.10;;;12.30;99.90;;;;;;5071592;28;20251;-68
2022/06/15 03:20:03;;;;;;;4.00;3.23;;;12.30;99.90;;;;;;5071448;28;20791;-69
2022/06/15 03:22:28;;;;;;;7.37;3.60;;;12.40;99.90;;;;;;5071581;28;20405;-68
2022/06/15 03:24:54;;;;;;;3.43;2.80;;;12.40;99.90;;;;;;5071112;28;20752;-68
2022/06/15 03:27:19;;;;;;;4.73;2.60;;;12.50;99.90;;;;;;5071553;28;20595;-68
2022/06/15 03:29:47;;;;;;;3.30;2.37;;;12.50;99.90;;;;;;5071305;28;20182;-68
2022/06/15 03:32:15;;;;;;;3.03;2.83;;;12.60;99.90;;;;;;5071356;28;20194;-68
2022/06/15 03:34:41;;;;;;;3.00;2.77;;;12.70;99.90;;;;;;5071011;28;20774;-68
2022/06/15 03:37:06;;;;;;;6.43;2.80;;;12.70;99.90;;;;;;5070993;28;20445;-68
2022/06/15 03:39:32;;;;;;;3.63;2.80;;;12.80;99.90;;;;;;5071254;28;20408;-68
2022/06/15 03:42:13;;;;;;;3.30;2.77;;;12.80;99.90;;;;;;5071131;28;20172;-69
2022/06/15 03:44:40;;;;;;;3.50;3.20;;;13.00;99.90;;;;;;5071444;28;20679;-69
2022/06/15 03:47:09;;;;;;;5.10;3.47;;;13.00;99.90;;;;;;5072165;28;20776;-68
2022/06/15 03:49:34;;;;;;;5.43;2.57;;;13.10;99.90;;;;;;5076512;28;20416;-68
2022/06/15 03:52:00;;;;;;;3.40;2.97;;;13.20;99.90;;;;;;5074086;28;20483;-69
2022/06/15 03:54:25;;;;;;;5.03;2.60;;;13.20;99.90;;;;;;5071322;28;20170;-69
2022/06/15 03:56:51;;;;;;;3.00;2.67;;;13.30;99.90;;;;;;5071065;28;20227;-68
2022/06/15 03:59:16;;;;;;;2.60;2.40;;;13.50;99.90;;;;;;5071036;28;20177;-68
2022/06/15 04:01:42;;;;;;;3.30;2.50;;;13.50;99.90;;;;;;5070928;28;20178;-68
2022/06/15 04:04:09;;;;;;;4.00;2.33;;;13.60;99.90;;;;;;5071216;28;20169;-68
2022/06/15 04:06:34;;;;;;;3.33;3.03;;;13.70;99.90;;;;;;5070857;28;20213;-69
2022/06/15 04:09:00;;;;;;;4.50;2.87;;;13.90;99.90;;;;;;5070933;28;20424;-69
2022/06/15 04:14:11;;;;;;;4.07;2.77;;;14.00;99.90;;;;;;5071120;28;20423;-68
2022/06/15 04:16:36;;;;;;;3.17;2.83;;;14.90;99.90;;;;;;5070677;28;20768;-69
2022/06/15 04:19:04;;;;;;;2.30;2.10;;;16.50;99.90;;;;;;5071003;28;20211;-69
2022/06/15 04:21:30;;;;;;;4.10;2.40;;;17.70;99.90;;;;;;5071067;28;20173;-70
2022/06/15 04:23:55;;;;;;;3.77;2.63;;;18.60;99.90;;;;;;5071334;28;20412;-69
2022/06/15 04:26:21;;;;;;;3.93;2.10;;;18.70;99.90;;;;;;5071100;28;20402;-70
2022/06/15 04:28:47;;;;;;;3.80;2.57;;;19.00;99.90;;;;;;5070713;28;20739;-69
2022/06/15 04:31:12;;;;;;;2.57;2.13;;;19.10;99.90;;;;;;5070947;28;20397;-69
2022/06/15 04:33:38;;;;;;;3.43;2.50;;;19.10;99.90;;;;;;5070662;28;20593;-69
2022/06/15 04:36:04;;;;;;;2.70;2.50;;;19.30;99.90;;;;;;5070816;28;20746;-69
2022/06/15 04:38:30;;;;;;;5.07;3.07;;;19.20;99.90;;;;;;5070774;28;20220;-69
2022/06/15 04:40:55;;;;;;;7.60;2.30;;;19.40;99.90;;;;;;5070796;28;20490;-69
2022/06/15 04:43:21;;;;;;;2.43;2.20;;;19.80;99.90;;;;;;5070729;28;20266;-69
2022/06/15 04:45:47;;;;;;;2.43;2.23;;;19.70;99.90;;;;;;5070706;28;20169;-70
2022/06/15 04:48:13;;;;;;;4.23;3.00;;;19.60;99.90;;;;;;5088380;28;20235;-68
2022/06/15 04:50:39;;;;;;;2.83;2.23;;;20.10;99.90;;;;;;5094615;28;20176;-68
2022/06/15 04:53:05;;;;;;;4.27;2.20;;;19.60;99.90;;;;;;5076266;28;20225;-68
2022/06/15 04:55:31;;;;;;;4.13;2.73;;;19.20;99.90;;;;;;5094272;28;20502;-69
2022/06/15 04:57:59;;;;;;;3.70;2.60;;;18.90;99.90;;;;;;5094017;28;20446;-69
2022/06/15 05:00:27;;;;;;;2.13;2.00;;;19.40;99.90;;;;;;5094463;28;20409;-69
2022/06/15 05:02:53;;;;;;;2.10;1.90;;;19.70;99.90;;;;;;5094763;28;20453;-69
2022/06/15 05:05:18;;;;;;;2.60;2.40;;;20.50;99.90;;;;;;5094217;28;20822;-68
2022/06/15 05:07:45;;;;;;;3.17;2.10;;;20.80;99.90;;;;;;5094274;28;20427;-68
2022/06/15 05:10:16;;;;;;;3.10;2.53;;;20.40;99.90;;;;;;5094302;28;20282;-68
2022/06/15 05:12:42;;;;;;;2.03;1.83;;;19.90;99.90;;;;;;5093917;28;20442;-68
2022/06/15 05:15:09;;;;;;;1.93;1.73;;;20.20;99.90;;;;;;5093663;28;20431;-69
2022/06/15 05:17:35;;;;;;;2.47;2.27;;;19.60;99.90;;;;;;5094018;28;20425;-68
2022/06/15 05:20:01;;;;;;;2.20;2.00;;;20.40;99.50;;;;;;5094039;28;20403;-68
2022/06/15 05:22:26;;;;;;;2.80;2.20;;;20.50;99.00;;;;;;5094452;28;20249;-68
2022/06/15 05:24:52;;;;;;;1.90;1.80;;;20.30;99.10;;;;;;5093774;28;20395;-68
2022/06/15 05:27:17;;;;;;;2.20;1.83;;;20.30;99.40;;;;;;5094118;28;20194;-68
2022/06/15 05:29:43;;;;;;;1.60;1.50;;;20.10;98.80;;;;;;5095263;28;20219;-68
2022/06/15 05:32:09;;;;;;;2.60;1.60;;;20.10;99.20;;;;;;5097565;28;20194;-68
2022/06/15 05:34:35;;;;;;;2.23;1.90;;;20.00;99.00;;;;;;5096576;28;20247;-68
2022/06/15 05:37:02;;;;;;;2.07;1.83;;;19.70;99.60;;;;;;5095712;28;20204;-68
2022/06/15 05:39:27;;;;;;;2.53;1.43;;;19.70;99.80;;;;;;5087703;22;20493;-64
2022/06/15 05:41:53;;;;;;;2.93;2.10;;;19.30;99.90;;;;;;5052533;28;20415;-64
2022/06/15 05:44:43;;;;;;;2.50;1.77;;;19.40;99.90;;;;;;5052603;28;20174;-65
2022/06/15 05:47:11;;;;;;;2.03;1.60;;;19.60;99.50;;;;;;5052266;28;20231;-67
2022/06/15 05:49:37;;;;;;;3.90;2.10;;;19.30;99.90;;;;;;5052803;28;20418;-64
2022/06/15 05:52:02;;;;;;;3.70;1.90;;;19.10;99.90;;;;;;5050100;28;20530;-65
2022/06/15 05:54:28;;;;;;;2.90;2.10;;;19.70;99.00;;;;;;5051913;28;20805;-65
2022/06/15 05:56:54;;;;;;;4.17;1.37;;;19.40;99.40;;;;;;5052259;28;20172;-65
2022/06/15 05:59:20;;;;;;;2.20;1.60;;;19.80;99.20;;;;;;5052222;28;20587;-66
2022/06/15 06:01:45;;;;;;;7.10;2.03;;;20.90;98.30;;;;;;5052557;28;20425;-65
2022/06/15 06:04:14;;;;;;;1.60;1.30;;;21.00;97.40;;;;;;5052632;28;20166;-65
2022/06/15 06:06:40;;;;;;;1.20;1.10;;;21.10;95.80;;;;;;5052621;28;20177;-66
2022/06/15 06:09:05;;;;;;;1.70;1.20;;;21.30;94.80;;;;;;5052610;28;20446;-65
2022/06/15 06:11:31;;;;;;;2.30;1.40;;;20.90;94.60;;;;;;5051939;28;20268;-66
2022/06/15 06:13:56;;;;;;;1.10;1.00;;;20.50;95.50;;;;;;5052275;28;20168;-66
2022/06/15 06:16:22;;;;;;;2.80;1.40;;;21.10;95.00;;;;;;5052096;28;20662;-66
2022/06/15 06:18:48;;;;;;;2.57;1.13;;;21.50;94.60;;;;;;5052272;28;20569;-66
2022/06/15 06:21:13;;;;;;;2.20;1.00;;;22.00;94.00;;;;;;5052467;28;20161;-66
2022/06/15 06:23:39;;;;;;;1.20;1.00;;;22.20;92.90;;;;;;5052010;28;20166;-65
2022/06/15 06:26:05;;;;;;;2.53;1.10;;;22.50;92.60;;;;;;5051283;28;20171;-65
2022/06/15 06:28:34;;;;;;;3.03;0.97;;;22.50;91.70;;;;;;5051750;28;20201;-65
2022/06/15 06:31:01;;;;;;;1.47;0.97;;;22.80;90.90;;;;;;5052122;28;20410;-65
2022/06/15 06:33:28;;;;;;;1.30;1.10;;;23.90;88.30;;;;;;5051309;28;20498;-65
2022/06/15 06:35:59;;;;;;;1.00;0.80;;;24.10;85.40;;;;;;5051690;28;20463;-65
2022/06/15 06:38:25;;;;;;;1.37;1.20;;;24.40;82.80;;;;;;5051492;28;20437;-65
2022/06/15 06:40:53;;;;;;;1.20;0.90;;;23.80;86.00;;;;;;5051758;28;20929;-65
2022/06/15 06:43:19;;;;;;;1.70;1.17;;;24.60;83.40;;;;;;5051839;28;20451;-65
2022/06/15 06:45:44;;;;;;;0.97;0.87;;;23.80;82.60;;;;;;5051332;28;20444;-64
2022/06/15 06:48:10;;;;;;;1.83;0.90;;;22.40;86.60;;;;;;5051583;28;20252;-65
2022/06/15 06:50:37;;;;;;;2.10;0.97;;;22.50;86.90;;;;;;5051667;28;20170;-65
2022/06/15 06:53:03;;;;;;;0.90;0.80;;;22.70;86.10;;;;;;5051181;28;20201;-65
2022/06/15 06:55:29;;;;;;;2.50;1.10;;;23.50;82.30;;;;;;5051890;28;20764;-65
2022/06/15 06:57:57;;;;;;;1.43;1.10;;;23.90;81.90;;;;;;5051630;28;20405;-65
2022/06/15 07:00:23;;;;;;;1.10;0.97;;;23.20;82.40;;;;;;5050348;28;20875;-65
2022/06/15 07:02:49;;;;;;;1.13;0.97;;;24.30;79.10;;;;;;5050841;28;20513;-65
2022/06/15 07:05:15;;;;;;;2.50;0.90;;;23.40;80.90;;;;;;5051249;28;20755;-66
2022/06/15 07:07:40;;;;;;;1.30;1.13;;;23.60;83.10;;;;;;5051159;28;20408;-66
2022/06/15 07:10:06;;;;;;;0.77;0.70;;;23.80;81.60;;;;;;5050807;28;20662;-66
2022/06/15 07:12:33;;;;;;;3.00;1.00;;;24.10;80.70;;;;;;5051046;28;20222;-65
2022/06/15 07:14:59;;;;;;;1.30;1.20;;;24.30;79.10;;;;;;5051133;28;20535;-65
2022/06/15 07:17:25;;;;;;;1.00;0.83;;;23.10;81.70;;;;;;5051224;28;20949;-65
2022/06/15 07:19:50;;;;;;;0.90;0.70;;;22.50;82.20;;;;;;5050951;28;20186;-66
2022/06/15 07:22:16;;;;;;;2.27;1.13;;;22.60;82.20;;;;;;5051120;28;20537;-66
2022/06/15 07:24:41;;;;;;;1.30;0.90;;;22.80;81.70;;;;;;5050775;28;20175;-65
2022/06/15 07:27:07;;;;;;;1.97;1.00;;;22.60;80.20;;;;;;5051027;28;20179;-65
2022/06/15 07:29:33;;;;;;;2.07;1.40;;;22.10;81.50;;;;;;5050933;28;20255;-65
2022/06/15 07:31:58;;;;;;;1.30;1.20;;;21.60;83.00;;;;;;5049605;28;20279;-65
2022/06/15 07:34:24;;;;;;;1.00;0.90;;;21.70;83.70;;;;;;5050387;28;20843;-65
2022/06/15 07:36:51;;;;;;;1.13;0.83;;;22.30;82.60;;;;;;5050539;28;20185;-65
2022/06/15 07:39:30;;;;;;;2.27;1.17;;;22.10;82.30;;;;;;5050717;28;20452;-66
2022/06/15 07:41:56;;;;;;;1.57;1.00;;;23.30;79.90;;;;;;5050741;28;20415;-65
2022/06/15 07:44:24;;;;;;;8.00;1.23;;;23.80;80.00;;;;;;5051051;28;20894;-65
2022/06/15 07:49:54;;;;;;;1.03;0.93;;;23.00;81.30;;;;;;5050685;28;20416;-65
2022/06/15 07:49:54;;;;;;;3.20;1.50;;;24.00;80.10;;;;;;5050457;28;20432;-65
2022/06/15 07:52:37;;;;;;;2.17;1.30;;;24.90;79.20;;;;;;5050654;28;20551;-65
2022/06/15 07:55:05;;;;;;;2.17;1.20;;;24.10;78.90;;;;;;5050508;28;20765;-66
2022/06/15 07:57:31;;;;;;;2.00;0.93;;;23.80;79.10;;;;;;5050729;28;20440;-66
2022/06/15 07:59:56;;;;;;;2.77;1.37;;;23.80;81.80;;;;;;5050595;28;20457;-66
2022/06/15 08:02:22;;;;;;;2.00;1.30;;;24.10;80.00;;;;;;5050589;28;20167;-66
2022/06/15 08:04:48;;;;;;;2.40;0.97;;;23.60;80.90;;;;;;5050564;28;20181;-66
2022/06/15 08:07:16;;;;;;;1.20;1.10;;;24.70;77.70;;;;;;5050789;28;20171;-66
2022/06/15 08:09:42;;;;;;;1.40;1.10;;;25.40;72.90;;;;;;5050538;28;20425;-66
2022/06/15 08:12:12;;;;;;;2.33;1.43;;;26.20;72.50;;;;;;5050236;28;20448;-66
2022/06/15 08:14:45;;;;;;;1.67;1.17;;;26.40;70.40;;;;;;5050621;28;20409;-65
2022/06/15 08:17:18;;;;;;;2.53;1.10;;;25.90;70.70;;;;;;5050725;28;20406;-66
2022/06/15 08:19:50;;;;;;;1.43;0.80;;;24.70;76.50;;;;;;5050380;28;20433;-65
2022/06/15 08:22:16;;;;;;;1.30;1.00;;;26.00;71.50;;;;;;5034502;28;20409;-66
2022/06/15 08:24:43;;;;;;;1.30;1.00;;;26.50;67.40;;;;;;5053759;28;20428;-65
2022/06/15 08:27:12;;;;;;;0.83;0.80;;;25.00;72.10;;;;;;5054210;28;20459;-66
2022/06/15 08:29:40;;;;;;;4.30;1.23;;;25.70;69.80;;;;;;5054372;28;20429;-65
2022/06/15 08:32:06;;;;;;;2.70;1.60;;;25.00;70.30;;;;;;5054036;28;20463;-65
2022/06/15 08:34:36;;;;;;;1.80;1.40;;;25.40;70.50;;;;;;5053840;28;20417;-65
2022/06/15 08:37:06;;;;;;;2.17;0.90;;;26.30;69.10;;;;;;5054318;28;20400;-66
2022/06/15 08:39:32;;;;;;;3.20;1.40;;;26.30;68.00;;;;;;5054244;28;20453;-66
2022/06/15 08:42:29;;;;;;;3.10;1.07;;;25.40;68.50;;;;;;5053715;28;20922;-66
2022/06/15 08:45:09;;;;;;;1.63;0.93;;;25.40;69.50;;;;;;5049469;28;20664;-66
2022/06/15 08:47:53;;;;;;;1.83;0.90;;;24.90;69.30;;;;;;5054222;28;20756;-67
2022/06/15 08:50:37;;;;;;;1.17;0.77;;;25.30;70.20;;;;;;5053884;28;20409;-65
2022/06/15 08:53:14;;;;;;;1.33;1.03;;;26.40;67.50;;;;;;5053888;28;20952;-65
2022/06/15 08:56:08;;;;;;;4.87;2.07;;;27.40;64.80;;;;;;5053481;28;20424;-66
2022/06/15 08:58:52;;;;;;;2.73;1.10;;;26.50;65.40;;;;;;5053713;28;20419;-65
2022/06/15 09:01:49;;;;;;;4.50;1.40;;;26.70;64.60;;;;;;5053668;28;20745;-69
2022/06/15 09:04:37;;;;;;;1.20;0.80;;;26.60;63.70;;;;;;5053544;28;20404;-65
2022/06/15 09:07:44;;;;;;;0.80;0.80;;;26.00;65.20;;;;;;5053582;28;20404;-65
2022/06/15 09:10:44;;;;;;;1.50;0.93;;;25.10;67.70;;;;;;5053575;28;20421;-65
2022/06/15 09:13:32;;;;;;;0.90;0.70;;;25.50;66.80;;;;;;5053152;28;20455;-65
2022/06/15 09:16:10;;;;;;;2.67;1.30;;;25.60;65.90;;;;;;5053266;28;20860;-66
2022/06/15 09:18:50;;;;;;;1.50;0.83;;;25.70;66.80;;;;;;5053213;28;20413;-66
2022/06/15 09:21:24;;;;;;;1.53;1.10;;;24.90;70.20;;;;;;5053247;28;20455;-65
2022/06/15 09:23:58;;;;;;;4.07;1.10;;;25.70;67.90;;;;;;5053276;28;20405;-65
2022/06/15 09:26:29;;;;;;;1.57;1.10;;;25.40;68.50;;;;;;5052799;28;20433;-65
2022/06/15 09:29:10;;;;;;;1.57;1.07;;;26.40;66.90;;;;;;5052971;28;20425;-65
2022/06/15 09:31:55;;;;;;;3.50;1.23;;;26.20;67.80;;;;;;5052820;28;20425;-65
2022/06/15 09:34:39;;;;;;;1.70;1.03;;;27.70;61.60;;;;;;5052487;28;20416;-65
2022/06/15 09:37:18;;;;;;;1.47;0.93;;;27.90;62.60;;;;;;5053012;28;20394;-65
2022/06/15 09:39:44;;;;;;;2.13;1.10;;;27.40;62.00;;;;;;5052545;28;20480;-65
2022/06/15 09:42:09;;;;;;;3.23;1.07;;;26.90;64.10;;;;;;5048482;28;20896;-65
2022/06/15 09:44:44;;;;;;;1.33;0.90;;;26.70;64.50;;;;;;5052595;28;20171;-65
2022/06/15 09:47:34;;;;;;;1.53;1.07;;;26.70;66.20;;;;;;5052794;28;20579;-66
2022/06/15 09:50:28;;;;;;;1.50;1.40;;;26.40;67.60;;;;;;5052968;28;20476;-65
2022/06/15 09:53:08;;;;;;;1.63;1.23;;;27.10;65.20;;;;;;5052696;28;20470;-65
2022/06/15 09:55:39;;;;;;;4.60;1.10;;;25.80;65.00;;;;;;5052513;28;20401;-66
2022/06/15 09:58:07;;;;;;;2.40;1.10;;;25.40;65.90;;;;;;5052828;28;20405;-66
2022/06/15 10:00:36;;;;;;;3.30;1.30;;;25.40;64.20;;;;;;5051412;28;20405;-66
2022/06/15 10:03:06;;;;;;;1.77;1.10;;;25.10;65.00;;;;;;5052816;28;20412;-66
2022/06/15 10:05:39;;;;;;;1.40;1.07;;;25.00;65.10;;;;;;5052466;28;20430;-67
2022/06/15 10:08:10;;;;;;;2.00;1.00;;;24.30;68.00;;;;;;5052665;28;20417;-66
2022/06/15 10:10:48;;;;;;;1.30;1.10;;;25.10;68.50;;;;;;5052741;28;20705;-66
2022/06/15 10:13:16;;;;;;;2.20;1.60;;;25.70;66.60;;;;;;5051984;28;20460;-66
2022/06/15 10:15:42;;;;;;;1.87;1.50;;;25.30;66.10;;;;;;5051901;28;20443;-64
2022/06/15 10:18:28;;;;;;;3.43;1.63;;;24.00;68.00;;;;;;5052021;28;20898;-66
2022/06/15 10:21:13;;;;;;;1.70;1.60;;;23.70;71.30;;;;;;5034970;28;20195;-65
2022/06/15 10:23:57;;;;;;;0.93;0.93;;;24.10;72.60;;;;;;5034466;28;20415;-65
2022/06/15 10:26:56;;;;;;;3.33;1.37;;;24.40;71.10;;;;;;5052139;28;20399;-65
2022/06/15 10:29:27;;;;;;;3.73;1.43;;;23.00;71.00;;;;;;5049213;28;20600;-65
2022/06/15 10:32:09;;;;;;;1.73;1.43;;;22.70;72.30;;;;;;5051873;28;20568;-65
2022/06/15 10:34:47;;;;;;;1.83;1.40;;;23.50;73.60;;;;;;5051822;28;20403;-65
2022/06/15 10:37:27;;;;;;;2.50;1.37;;;23.90;72.00;;;;;;5051887;28;20533;-65
2022/06/15 10:39:58;;;;;;;1.33;1.23;;;23.70;72.70;;;;;;5051733;28;20454;-65
2022/06/15 10:42:43;;;;;;;2.20;1.43;;;24.20;73.40;;;;;;5052520;28;20416;-66
2022/06/15 10:45:33;;;;;;;2.90;1.60;;;24.50;71.80;;;;;;5050752;28;20404;-65
2022/06/15 10:48:04;;;;;;;1.97;1.60;;;23.90;72.60;;;;;;5051329;28;20414;-65
2022/06/15 10:50:40;;;;;;;1.10;1.00;;;24.30;72.40;;;;;;5051664;28;20804;-65
2022/06/15 10:53:23;;;;;;;5.53;1.30;;;24.10;69.80;;;;;;5051470;28;20454;-65
2022/06/15 11:02:08;;;;;;;1.70;1.60;;;24.70;70.70;;;;;;5051645;28;20425;-65
2022/06/15 11:04:45;;;;;;;2.60;1.60;;;24.50;70.20;;;;;;5051108;28;20437;-65
2022/06/15 11:07:23;;;;;;;3.00;1.53;;;24.20;67.20;;;;;;5051147;28;20395;-65
2022/06/15 11:09:54;;;;;;;4.77;1.60;;;24.40;68.40;;;;;;5051496;28;20791;-65
2022/06/15 11:12:30;;;;;;;3.33;1.63;;;24.50;68.20;;;;;;5051020;28;20458;-65
2022/06/15 11:15:22;;;;;;;2.07;1.50;;;24.60;67.80;;;;;;5050972;28;20391;-65
2022/06/15 11:18:06;;;;;;;2.50;1.70;;;24.50;67.60;;;;;;5050942;28;20404;-65
2022/06/15 11:20:53;;;;;;;1.53;1.30;;;24.30;69.50;;;;;;5051186;28;20408;-65
2022/06/15 11:23:22;;;;;;;1.13;1.03;;;23.90;68.80;;;;;;5051165;28;20501;-65
2022/06/15 11:29:30;;;;;;;4.23;1.73;;;24.20;69.00;;;;;;5051497;28;21119;-65
2022/06/15 11:32:00;;;;;;;1.90;1.40;;;24.60;68.80;;;;;;5051064;28;20956;-66
2022/06/15 11:34:33;;;;;;;2.07;1.87;;;24.70;71.20;;;;;;5050851;28;20408;-65
2022/06/15 11:37:17;;;;;;;3.93;1.30;;;24.60;69.40;;;;;;5051031;28;20764;-67
2022/06/15 11:39:48;;;;;;;3.13;1.77;;;24.80;69.30;;;;;;5079171;22;20546;-69
2022/06/15 11:42:17;;;;;;;1.30;1.20;;;24.80;67.30;;;;;;5071728;28;20403;-69
2022/06/15 11:44:44;;;;;;;2.23;1.80;;;24.60;68.40;;;;;;5071647;28;20399;-69
2022/06/15 11:47:29;;;;;;;1.33;1.23;;;24.60;67.00;;;;;;5053914;28;20549;-69
2022/06/15 11:50:00;;;;;;;1.77;1.67;;;24.70;69.90;;;;;;5082412;28;20413;-69
2022/06/15 11:52:48;;;;;;;2.27;2.07;;;24.70;68.00;;;;;;5092158;28;20505;-69
2022/06/15 11:55:29;;;;;;;1.93;1.50;;;24.60;67.60;;;;;;5091913;28;20405;-69
2022/06/15 11:58:23;;;;;;;2.70;1.60;;;24.60;68.20;;;;;;5085467;28;20402;-69
2022/06/15 12:01:04;;;;;;;1.93;1.30;;;24.70;69.00;;;;;;5098242;28;20438;-69
2022/06/15 12:03:56;;;;;;;3.07;1.53;;;24.40;68.70;;;;;;5087601;28;20421;-68
2022/06/15 12:06:32;;;;;;;1.73;1.40;;;24.60;68.00;;;;;;5073723;28;20416;-69
2022/06/15 12:09:27;;;;;;;3.53;1.40;;;24.40;67.80;;;;;;5075305;28;20462;-68
2022/06/15 12:12:39;;;;;;;3.27;1.90;;;24.30;69.10;;;;;;5075019;28;20450;-68
2022/06/15 12:15:31;;;;;;;2.10;1.80;;;24.30;68.30;;;;;;5075562;28;20399;-68
2022/06/15 12:18:34;;;;;;;2.20;1.70;;;24.60;68.00;;;;;;5075614;28;20952;-68
2022/06/15 12:21:18;;;;;;;1.57;1.47;;;24.70;67.40;;;;;;5075404;28;20409;-69
2022/06/15 12:23:57;;;;;;;2.90;1.77;;;24.80;67.80;;;;;;5075282;28;20530;-69
2022/06/15 12:26:36;;;;;;;4.20;3.10;;;25.10;68.10;;;;;;5075019;28;20509;-68
2022/06/15 12:29:18;;;;;;;3.37;1.83;;;24.80;68.80;;;;;;5075005;28;20412;-69
2022/06/15 12:31:52;;;;;;;2.90;1.90;;;25.10;67.80;;;;;;5074940;28;20445;-68
2022/06/15 12:34:28;;;;;;;3.00;1.77;;;25.40;65.80;;;;;;5075046;28;20406;-69
2022/06/15 12:37:06;;;;;;;1.63;1.10;;;25.30;65.00;;;;;;5074717;28;20655;-69
2022/06/15 12:39:53;;;;;;;3.90;1.83;;;25.30;67.60;;;;;;5074763;28;20955;-69
2022/06/15 12:42:22;;;;;;;2.20;1.70;;;25.50;66.00;;;;;;5074980;28;20490;-68
2022/06/15 12:45:03;;;;;;;4.10;2.10;;;25.10;63.60;;;;;;5074609;28;20508;-68
2022/06/15 12:47:29;;;;;;;1.93;1.60;;;24.70;65.00;;;;;;5074957;28;20416;-69
2022/06/15 12:50:04;;;;;;;1.93;1.40;;;24.70;65.90;;;;;;5074735;28;20436;-68
2022/06/15 12:52:48;;;;;;;1.53;1.40;;;24.60;66.10;;;;;;5074522;28;20544;-69
2022/06/15 12:55:22;;;;;;;3.57;1.53;;;24.80;66.70;;;;;;5074345;28;20415;-69
2022/06/15 12:58:17;;;;;;;2.30;1.60;;;24.90;65.80;;;;;;5074412;28;20909;-68
2022/06/15 13:00:56;;;;;;;1.77;1.63;;;25.00;65.30;;;;;;5065504;28;20836;-69
2022/06/15 13:03:21;;;;;;;3.03;1.40;;;25.20;66.00;;;;;;5074594;28;20513;-69
2022/06/15 13:05:47;;;;;;;4.70;1.90;;;25.20;66.80;;;;;;5074285;28;20925;-69
2022/06/15 13:08:20;;;;;;;2.80;1.90;;;25.30;63.80;;;;;;5073172;28;20183;-69
2022/06/15 13:10:55;;;;;;;2.53;1.80;;;25.10;65.20;;;;;;5074480;28;20728;-69
2022/06/15 13:13:32;;;;;;;1.80;1.70;;;25.00;64.60;;;;;;5074124;28;20454;-69
2022/06/15 13:16:23;;;;;;;1.47;1.37;;;24.60;65.20;;;;;;5074316;28;20452;-69
2022/06/15 13:18:52;;;;;;;2.90;1.67;;;24.70;66.30;;;;;;5068503;28;20426;-69
2022/06/15 13:21:24;;;;;;;2.40;1.90;;;25.20;66.50;;;;;;5074761;28;20804;-69
2022/06/15 13:24:06;;;;;;;3.47;2.30;;;25.30;65.70;;;;;;5075014;28;20407;-68
2022/06/15 13:26:31;;;;;;;1.97;1.30;;;25.50;66.90;;;;;;5075071;28;20408;-69
2022/06/15 13:29:01;;;;;;;3.00;1.80;;;25.70;65.70;;;;;;5073927;28;20503;-69